Time;durP1;ratioP1;P1;durP2;ratioP2;P2;SDS_P1;SDS_P2;PMS_P1;PMS_P2;Temp;Humidity;BMP_temperature;BMP_pressure;BME280_temperature;BME280_humidity;BME280_pressure;Samples;Min_cycle;Max_cycle;Signal;HPM_P1;HPM_P2
2023/06/09 00:00:38;;;;;;;7.83;4.77;;;;;;;18.31;60.77;101261.22;5122939;29;20369;-71
2023/06/09 00:03:09;;;;;;;8.55;4.05;;;;;;;18.41;60.58;101260.78;5122397;29;20032;-71
2023/06/09 00:05:41;;;;;;;12.27;5.47;;;;;;;18.29;61.56;101263.03;5121825;29;20051;-71
2023/06/09 00:08:12;;;;;;;8.63;4.27;;;;;;;18.07;61.50;101262.97;5122462;29;20043;-71
2023/06/09 00:10:44;;;;;;;14.57;4.80;;;;;;;18.13;61.29;101258.34;5122870;29;20024;-70
2023/06/09 00:13:15;;;;;;;13.20;5.00;;;;;;;18.12;61.30;101264.53;5122087;29;20036;-70
2023/06/09 00:15:47;;;;;;;12.27;3.77;;;;;;;17.92;60.98;101264.38;5121847;29;20491;-68
2023/06/09 00:18:18;;;;;;;8.53;4.20;;;;;;;17.95;61.47;101267.78;5120837;29;20040;-69
2023/06/09 00:20:51;;;;;;;9.90;4.53;;;;;;;17.92;61.24;101262.63;5121844;29;20115;-69
2023/06/09 00:23:23;;;;;;;;;;;;;;;18.02;59.30;101261.34;5122273;29;20055;-70
2023/06/09 00:25:55;;;;;;;9.07;4.37;;;;;;;17.75;61.43;101251.78;5121691;29;20373;-70
2023/06/09 00:28:26;;;;;;;10.50;3.87;;;;;;;17.79;61.79;101256.88;5121611;29;20132;-70
2023/06/09 00:30:57;;;;;;;12.47;4.50;;;;;;;17.84;61.23;101254.94;5121334;29;20336;-70
2023/06/09 00:33:29;;;;;;;13.90;5.03;;;;;;;17.70;61.70;101248.44;5121520;29;20040;-69
2023/06/09 00:36:00;;;;;;;15.23;5.13;;;;;;;17.77;62.50;101256.06;5121678;29;20032;-69
2023/06/09 00:38:32;;;;;;;9.17;4.40;;;;;;;17.53;62.27;101251.66;5121464;29;20039;-69
2023/06/09 00:41:03;;;;;;;12.43;4.30;;;;;;;17.46;62.33;101249.22;5121498;29;20040;-69
2023/06/09 00:43:34;;;;;;;7.77;4.80;;;;;;;17.55;63.31;101250.69;5121565;29;20032;-70
2023/06/09 00:46:06;;;;;;;10.23;4.87;;;;;;;17.59;63.39;101252.28;5121478;29;20056;-70
2023/06/09 00:48:37;;;;;;;9.63;4.27;;;;;;;17.56;63.73;101251.53;5120320;29;20486;-70
2023/06/09 00:51:09;;;;;;;12.53;5.27;;;;;;;17.44;63.09;101253.69;5121388;29;20458;-70
2023/06/09 00:53:41;;;;;;;11.82;4.38;;;;;;;17.46;62.92;101251.00;5121643;29;20040;-70
2023/06/09 00:56:13;;;;;;;11.32;4.60;;;;;;;17.13;62.71;101248.59;5121655;29;20043;-70
2023/06/09 00:58:45;;;;;;;13.07;5.40;;;;;;;17.26;63.43;101256.97;5121304;29;20036;-70
2023/06/09 01:01:16;;;;;;;9.43;4.85;;;;;;;17.40;64.50;101254.69;5121851;29;20050;-71
2023/06/09 01:03:48;;;;;;;8.50;4.70;;;;;;;17.04;63.96;101252.38;5121453;29;20040;-70
2023/06/09 01:06:38;;;;;;;11.02;4.65;;;;;;;17.06;63.93;101242.63;5121510;29;20047;-70
2023/06/09 01:09:18;;;;;;;9.75;4.75;;;;;;;16.85;64.24;101238.94;5121459;29;20040;-70
2023/06/09 01:11:59;;;;;;;11.35;4.85;;;;;;;16.93;64.14;101247.44;5119937;29;20551;-70
2023/06/09 01:14:46;;;;;;;9.30;4.60;;;;;;;16.99;64.32;101249.03;5121133;29;20490;-70
2023/06/09 01:17:19;;;;;;;9.73;4.30;;;;;;;17.04;64.67;101249.75;5121477;29;20044;-70
2023/06/09 01:20:05;;;;;;;9.32;4.90;;;;;;;17.01;64.45;101239.31;5120991;29;20036;-70
2023/06/09 01:22:45;;;;;;;12.40;5.10;;;;;;;16.88;64.94;101233.56;5121336;29;20032;-70
2023/06/09 01:25:34;;;;;;;10.93;4.82;;;;;;;16.64;65.71;101229.91;5119988;29;20173;-70
2023/06/09 01:28:16;;;;;;;11.27;4.43;;;;;;;16.74;65.64;101225.22;5120851;29;20035;-70
2023/06/09 01:30:51;;;;;;;8.57;5.13;;;;;;;16.73;65.75;101226.13;5121473;29;20049;-70
2023/06/09 01:33:24;;;;;;;13.25;5.00;;;;;;;16.70;65.19;101219.19;5120914;29;20032;-70
2023/06/09 01:35:56;;;;;;;11.90;5.15;;;;;;;16.54;66.25;101221.44;5120788;29;20040;-70
2023/06/09 01:38:28;;;;;;;8.88;5.07;;;;;;;16.42;65.64;101221.78;5120896;29;20377;-71
2023/06/09 01:40:59;;;;;;;11.77;5.27;;;;;;;16.56;65.45;101216.97;5120826;29;20040;-71
2023/06/09 01:43:31;;;;;;;12.97;5.80;;;;;;;16.45;65.98;101215.59;5120821;29;20025;-70
2023/06/09 01:46:02;;;;;;;11.53;4.90;;;;;;;16.45;66.58;101220.84;5120466;29;20036;-71
2023/06/09 01:48:52;;;;;;;10.97;5.27;;;;;;;16.27;66.27;101231.00;5119414;29;20029;-71
2023/06/09 01:51:41;;;;;;;8.57;5.22;;;;;;;16.30;66.34;101235.34;5120664;29;20399;-70
2023/06/09 01:54:20;;;;;;;9.88;5.20;;;;;;;16.22;67.24;101225.88;5121201;29;20111;-71
2023/06/09 01:57:06;;;;;;;9.95;4.90;;;;;;;16.02;67.13;101223.84;5120166;29;20039;-70
2023/06/09 01:59:44;;;;;;;10.68;5.13;;;;;;;15.95;67.56;101221.44;5121216;29;20036;-70
2023/06/09 02:02:19;;;;;;;9.88;5.28;;;;;;;15.86;68.23;101219.94;5121145;29;20039;-70
2023/06/09 02:04:52;;;;;;;9.57;5.45;;;;;;;15.86;67.74;101227.81;5120035;29;20059;-70
2023/06/09 02:07:25;;;;;;;10.43;5.20;;;;;;;15.89;68.67;101221.59;5121122;29;20577;-70
2023/06/09 02:09:56;;;;;;;9.32;4.88;;;;;;;16.05;68.70;101222.88;5120775;29;20032;-70
2023/06/09 02:12:34;;;;;;;12.87;6.27;;;;;;;15.81;68.25;101216.53;5120453;29;20039;-70
2023/06/09 02:15:06;;;;;;;15.73;5.60;;;;;;;15.89;69.57;101219.84;5121054;29;20080;-71
2023/06/09 02:17:39;;;;;;;10.07;5.10;;;;;;;15.81;68.68;101213.91;5118941;29;20082;-70
2023/06/09 02:20:10;;;;;;;12.35;5.40;;;;;;;15.72;69.44;101208.91;5120334;29;20076;-71
2023/06/09 02:22:42;;;;;;;13.93;6.40;;;;;;;15.60;68.91;101210.06;5119708;29;20040;-70
2023/06/09 02:25:13;;;;;;;13.07;5.40;;;;;;;15.72;69.81;101206.28;5120387;29;20107;-71
2023/06/09 02:27:45;;;;;;;9.83;5.10;;;;;;;15.66;69.06;101208.16;5120620;29;20443;-71
2023/06/09 02:30:16;;;;;;;11.20;5.78;;;;;;;15.69;69.09;101210.69;5120566;29;20472;-70
2023/06/09 02:32:48;;;;;;;10.33;5.27;;;;;;;15.55;69.90;101202.31;5120201;29;20130;-70
2023/06/09 02:35:19;;;;;;;8.23;5.13;;;;;;;15.55;70.63;101204.09;5120191;29;20387;-70
2023/06/09 02:37:52;;;;;;;10.73;5.43;;;;;;;15.42;70.46;101207.06;5120370;29;20032;-70
2023/06/09 02:40:27;;;;;;;10.85;5.70;;;;;;;15.24;70.57;101199.63;5120459;29;20484;-72
2023/06/09 02:42:59;;;;;;;11.48;5.90;;;;;;;15.37;72.06;101202.81;5123535;29;20083;-70
2023/06/09 02:45:30;;;;;;;12.73;6.25;;;;;;;15.22;70.77;101194.44;5123725;29;20035;-70
2023/06/09 02:48:02;;;;;;;9.73;6.10;;;;;;;15.15;70.69;101195.50;5122813;29;20539;-70
2023/06/09 02:50:33;;;;;;;13.00;5.35;;;;;;;15.18;71.39;101189.28;5123670;29;20032;-70
2023/06/09 02:53:05;;;;;;;10.93;6.13;;;;;;;15.34;70.46;101205.50;5123538;29;20040;-69
2023/06/09 02:55:36;;;;;;;11.57;6.47;;;;;;;15.22;72.07;101202.31;5122512;29;20103;-70
2023/06/09 02:58:08;;;;;;;10.57;5.70;;;;;;;15.17;71.64;101201.56;5123478;29;20080;-70
2023/06/09 03:00:41;;;;;;;10.30;5.33;;;;;;;15.17;71.25;101203.34;5123154;29;20037;-71
2023/06/09 03:03:13;;;;;;;15.45;6.65;;;;;;;15.06;72.16;101198.34;5123478;29;20490;-70
2023/06/09 03:05:44;;;;;;;12.85;6.63;;;;;;;14.87;73.15;101198.78;5123183;29;20072;-70
2023/06/09 03:08:16;;;;;;;15.15;6.10;;;;;;;14.92;72.88;101201.31;5122631;29;20516;-69
2023/06/09 03:10:48;;;;;;;11.27;5.93;;;;;;;14.81;72.69;101211.19;5123139;29;20032;-69
2023/06/09 03:13:21;;;;;;;9.52;5.80;;;;;;;14.95;72.80;101215.19;5123741;29;20465;-69
2023/06/09 03:15:54;;;;;;;11.98;5.63;;;;;;;14.84;72.99;101217.22;5121973;29;20044;-69
2023/06/09 03:18:27;;;;;;;12.48;6.57;;;;;;;14.94;73.77;101218.75;5123431;29;20032;-70
2023/06/09 03:21:04;;;;;;;11.07;5.03;;;;;;;14.77;73.39;101208.63;5123300;29;20032;-69
2023/06/09 03:23:35;;;;;;;16.15;6.70;;;;;;;14.73;73.67;101209.63;5123759;29;20039;-70
2023/06/09 03:26:07;;;;;;;10.67;5.80;;;;;;;14.76;74.09;101206.94;5123456;29;20032;-70
2023/06/09 03:28:39;;;;;;;10.82;6.55;;;;;;;14.71;74.59;101213.16;5122787;29;20391;-70
2023/06/09 03:31:13;;;;;;;10.47;5.67;;;;;;;14.61;74.37;101209.03;5121665;29;20040;-69
2023/06/09 03:33:44;;;;;;;12.48;5.75;;;;;;;14.54;74.67;101209.16;5122858;29;20472;-70
2023/06/09 03:36:16;;;;;;;15.73;7.00;;;;;;;14.56;75.17;101219.59;5121505;29;20084;-70
2023/06/09 03:38:47;;;;;;;11.73;5.87;;;;;;;14.75;74.48;101217.47;5122442;29;20040;-70
2023/06/09 03:41:18;;;;;;;13.00;5.73;;;;;;;14.47;75.31;101202.28;5122556;29;20047;-70
2023/06/09 03:43:50;;;;;;;13.80;6.73;;;;;;;14.57;75.06;101209.06;5121899;29;20040;-70
2023/06/09 03:46:21;;;;;;;15.40;7.40;;;;;;;14.69;75.15;101228.09;5122214;29;20453;-69
2023/06/09 03:48:53;;;;;;;13.13;6.50;;;;;;;14.67;76.16;101233.38;5122117;29;20074;-69
2023/06/09 03:51:26;;;;;;;12.83;6.57;;;;;;;14.68;75.24;101239.47;5122128;29;20347;-70
2023/06/09 03:53:58;;;;;;;12.30;6.25;;;;;;;14.69;74.92;101241.22;5121200;29;20088;-69
2023/06/09 03:56:29;;;;;;;11.73;6.50;;;;;;;14.74;75.18;101237.56;5122260;29;20422;-69
2023/06/09 03:59:01;;;;;;;12.63;7.43;;;;;;;14.55;75.77;101231.88;5122244;29;20379;-70
2023/06/09 04:01:33;;;;;;;14.57;6.30;;;;;;;14.63;75.25;101238.72;5122077;29;20036;-69
2023/06/09 04:04:04;;;;;;;16.65;6.75;;;;;;;14.54;76.13;101238.00;5120794;29;20044;-70
2023/06/09 04:06:37;;;;;;;14.23;6.50;;;;;;;14.70;75.52;101241.19;5121738;29;20075;-69
2023/06/09 04:09:09;;;;;;;11.38;6.30;;;;;;;14.51;76.25;101229.34;5120755;29;20040;-69
2023/06/09 04:11:40;;;;;;;12.90;7.00;;;;;;;14.46;76.28;101229.44;5120352;29;20044;-69
2023/06/09 04:14:11;;;;;;;10.77;7.13;;;;;;;14.50;76.18;101236.31;5121870;29;20036;-69
2023/06/09 04:16:43;;;;;;;11.37;7.07;;;;;;;14.57;76.26;101231.81;5121243;29;20628;-69
2023/06/09 04:19:14;;;;;;;16.47;6.73;;;;;;;14.51;76.30;101245.09;5121783;29;20032;-70
2023/06/09 04:21:46;;;;;;;14.27;7.33;;;;;;;14.40;76.88;101245.31;5121687;29;20048;-69
2023/06/09 04:24:17;;;;;;;17.00;7.17;;;;;;;14.50;76.83;101241.56;5121620;29;20056;-70
2023/06/09 04:26:49;;;;;;;14.20;6.80;;;;;;;14.71;77.18;101242.88;5121424;29;20039;-69
2023/06/09 04:29:22;;;;;;;11.90;6.72;;;;;;;14.65;77.22;101235.19;5121610;29;20479;-69
2023/06/09 04:31:58;;;;;;;16.02;7.18;;;;;;;14.58;77.03;101244.03;5121350;29;20075;-69
2023/06/09 04:34:38;;;;;;;14.32;7.25;;;;;;;14.56;77.67;101241.44;5121940;29;20040;-69
2023/06/09 04:37:09;;;;;;;15.10;7.85;;;;;;;14.67;77.38;101243.88;5121814;29;20040;-69
2023/06/09 04:39:45;;;;;;;14.17;7.43;;;;;;;14.75;76.55;101247.19;5119739;29;20147;-69
2023/06/09 04:42:20;;;;;;;16.88;7.43;;;;;;;14.75;77.07;101246.31;5121286;29;20024;-69
2023/06/09 04:44:53;;;;;;;12.30;7.15;;;;;;;14.85;77.10;101246.97;5121207;29;20037;-69
2023/06/09 04:47:24;;;;;;;16.63;8.43;;;;;;;14.77;76.92;101252.41;5121721;29;20036;-70
2023/06/09 04:49:57;;;;;;;15.50;7.17;;;;;;;14.83;76.84;101254.00;5121346;29;20066;-69
2023/06/09 04:52:29;;;;;;;16.85;7.22;;;;;;;14.87;76.68;101246.03;5120767;29;20063;-69
2023/06/09 04:55:01;;;;;;;15.43;7.78;;;;;;;14.90;76.87;101251.22;5120971;29;20060;-69
2023/06/09 04:57:33;;;;;;;18.02;6.70;;;;;;;14.95;76.58;101246.72;5121378;29;20504;-69
2023/06/09 05:00:07;;;;;;;17.33;8.35;;;;;;;15.02;76.56;101251.81;5119712;29;20039;-69
2023/06/09 05:02:39;;;;;;;18.02;7.25;;;;;;;15.15;76.21;101248.00;5120931;29;20440;-69
2023/06/09 05:05:12;;;;;;;11.68;6.43;;;;;;;15.21;75.96;101249.63;5120273;29;20032;-69
2023/06/09 05:07:43;;;;;;;14.25;6.97;;;;;;;15.19;76.07;101254.91;5120577;29;20052;-69
2023/06/09 05:10:15;;;;;;;15.67;7.27;;;;;;;15.26;76.85;101256.50;5119385;29;20399;-69
2023/06/09 05:12:46;;;;;;;14.00;7.57;;;;;;;15.26;76.71;101251.25;5120334;29;20403;-70
2023/06/09 05:15:18;;;;;;;14.23;7.93;;;;;;;15.30;76.36;101252.88;5120578;29;20073;-69
2023/06/09 05:17:49;;;;;;;21.80;8.13;;;;;;;15.41;77.05;101252.59;5120979;29;20270;-69
2023/06/09 05:20:21;;;;;;;11.47;6.57;;;;;;;15.50;76.12;101264.63;5120711;29;20040;-69
2023/06/09 05:22:52;;;;;;;12.53;7.50;;;;;;;15.45;75.96;101259.50;5119549;29;20436;-69
2023/06/09 05:25:25;;;;;;;15.80;7.13;;;;;;;15.56;75.87;101259.22;5120595;29;20066;-69
2023/06/09 05:27:56;;;;;;;;;;;;;;;15.71;74.99;101263.22;5120751;29;20115;-69
2023/06/09 05:30:27;;;;;;;17.67;7.90;;;;;;;15.69;75.57;101259.78;5120513;29;20349;-69
2023/06/09 05:32:59;;;;;;;13.67;7.07;;;;;;;15.80;75.51;101260.38;5120515;29;20535;-70
2023/06/09 05:35:30;;;;;;;11.90;7.37;;;;;;;15.89;75.63;101259.28;5120416;29;20024;-69
2023/06/09 05:38:02;;;;;;;17.57;8.03;;;;;;;15.91;75.60;101267.13;5120300;29;20040;-70
2023/06/09 05:40:33;;;;;;;17.60;8.07;;;;;;;16.03;76.10;101265.03;5120648;29;20067;-70
2023/06/09 05:43:05;;;;;;;16.70;7.40;;;;;;;16.09;76.06;101256.09;5120305;29;20046;-70
2023/06/09 05:45:37;;;;;;;16.63;8.73;;;;;;;16.12;74.80;101270.94;5120580;29;20135;-70
2023/06/09 05:48:08;;;;;;;15.50;8.33;;;;;;;16.13;75.04;101263.00;5118774;29;20047;-70
2023/06/09 05:50:40;;;;;;;21.37;9.10;;;;;;;16.28;75.05;101264.31;5121096;29;20175;-69
2023/06/09 05:53:11;;;;;;;17.73;8.03;;;;;;;16.38;74.77;101265.75;5120280;29;20115;-69
2023/06/09 05:55:44;;;;;;;14.63;7.20;;;;;;;16.51;75.30;101268.03;5121056;29;20134;-69
2023/06/09 05:58:17;;;;;;;16.08;8.18;;;;;;;16.51;75.55;101266.25;5120296;29;20032;-69
2023/06/09 06:00:49;;;;;;;11.27;7.30;;;;;;;16.54;75.06;101265.31;5120795;29;20376;-70
2023/06/09 06:03:21;;;;;;;17.38;8.27;;;;;;;16.68;74.45;101264.88;5120202;29;20079;-70
2023/06/09 06:05:52;;;;;;;14.83;8.10;;;;;;;16.74;74.21;101257.69;5118812;29;20059;-70
2023/06/09 06:08:24;;;;;;;14.63;9.07;;;;;;;16.80;74.15;101263.66;5119981;29;20035;-70
2023/06/09 06:10:55;;;;;;;14.13;8.43;;;;;;;16.96;74.25;101262.28;5120189;29;20152;-71
2023/06/09 06:13:26;;;;;;;13.43;8.03;;;;;;;17.04;74.43;101264.69;5120122;29;20036;-70
2023/06/09 06:15:59;;;;;;;15.10;8.70;;;;;;;17.09;73.46;101258.34;5120953;29;20043;-71
2023/06/09 06:18:31;;;;;;;16.95;9.30;;;;;;;17.10;73.10;101249.53;5123568;29;20044;-71
2023/06/09 06:21:02;;;;;;;17.47;8.50;;;;;;;17.26;73.69;101262.22;5123993;29;20504;-71
2023/06/09 06:23:35;;;;;;;16.40;9.77;;;;;;;17.42;74.13;101263.44;5123951;29;20080;-72
2023/06/09 06:26:06;;;;;;;19.30;8.80;;;;;;;17.50;73.99;101263.19;5123784;29;20123;-71
2023/06/09 06:28:37;;;;;;;13.20;9.07;;;;;;;17.54;72.80;101269.19;5122835;29;20167;-71
2023/06/09 06:31:09;;;;;;;20.40;9.20;;;;;;;17.64;72.66;101260.03;5123675;29;20024;-71
2023/06/09 06:33:41;;;;;;;17.70;9.77;;;;;;;17.80;73.31;101271.78;5122763;29;20138;-71
2023/06/09 06:36:13;;;;;;;18.15;9.55;;;;;;;17.91;73.20;101267.94;5122054;29;20040;-70
2023/06/09 06:38:44;;;;;;;14.68;8.93;;;;;;;17.99;72.45;101264.09;5123714;29;20039;-70
2023/06/09 06:41:15;;;;;;;14.60;9.30;;;;;;;18.14;72.82;101270.59;5123851;29;20131;-71
2023/06/09 06:43:49;;;;;;;16.03;10.03;;;;;;;18.18;71.58;101272.22;5122379;29;20107;-70
2023/06/09 06:46:21;;;;;;;18.70;9.35;;;;;;;18.33;71.77;101267.28;5123117;29;20396;-70
2023/06/09 06:48:52;;;;;;;15.20;9.77;;;;;;;18.36;72.18;101265.38;5123091;29;20112;-70
2023/06/09 06:51:23;;;;;;;15.73;9.77;;;;;;;18.48;70.86;101258.78;5121621;29;20096;-70
2023/06/09 06:53:55;;;;;;;14.57;9.27;;;;;;;18.59;70.91;101261.88;5123622;29;20095;-70
2023/06/09 06:56:26;;;;;;;19.53;9.67;;;;;;;18.61;69.80;101256.50;5123075;29;20032;-70
2023/06/09 06:58:58;;;;;;;13.00;9.07;;;;;;;18.76;70.10;101250.63;5121911;29;20040;-70
2023/06/09 07:01:31;;;;;;;13.73;9.43;;;;;;;18.90;68.73;101260.69;5122664;29;20429;-70
2023/06/09 07:04:03;;;;;;;14.63;9.90;;;;;;;18.97;69.03;101258.66;5121862;29;20090;-70
2023/06/09 07:06:35;;;;;;;15.13;8.83;;;;;;;19.18;69.35;101266.66;5123180;29;20060;-70
2023/06/09 07:09:07;;;;;;;;;;;;;;;19.30;68.67;101263.47;5123360;29;20102;-70
2023/06/09 07:11:42;;;;;;;18.00;10.07;;;;;;;19.45;67.58;101264.66;5121702;29;20113;-70
2023/06/09 07:14:13;;;;;;;18.50;9.02;;;;;;;19.57;68.41;101266.75;5121418;29;20044;-70
2023/06/09 07:16:45;;;;;;;15.90;8.40;;;;;;;19.79;67.49;101260.56;5122713;29;20032;-70
2023/06/09 07:19:17;;;;;;;13.18;9.15;;;;;;;19.90;66.71;101273.31;5123172;29;20063;-70
2023/06/09 07:21:48;;;;;;;16.50;9.60;;;;;;;19.97;65.98;101275.63;5121290;29;20446;-70
2023/06/09 07:24:19;;;;;;;13.50;8.83;;;;;;;20.17;67.26;101277.38;5122336;29;20440;-70
2023/06/09 07:26:51;;;;;;;13.13;8.93;;;;;;;20.26;65.12;101277.91;5121558;29;20333;-70
2023/06/09 07:29:22;;;;;;;17.60;9.10;;;;;;;20.40;64.56;101278.97;5122798;29;20070;-70
2023/06/09 07:31:54;;;;;;;15.93;8.90;;;;;;;20.49;65.51;101268.88;5122687;29;20039;-71
2023/06/09 07:34:27;;;;;;;13.70;8.13;;;;;;;20.52;63.69;101272.25;5122660;29;20480;-71
2023/06/09 07:36:59;;;;;;;15.85;9.10;;;;;;;20.63;63.43;101271.75;5122390;29;20024;-70
2023/06/09 07:39:31;;;;;;;15.90;9.50;;;;;;;20.69;65.73;101273.28;5122418;29;20043;-70
2023/06/09 07:42:02;;;;;;;16.40;9.30;;;;;;;20.76;61.87;101270.25;5122008;29;20028;-70
2023/06/09 07:44:35;;;;;;;12.60;8.60;;;;;;;20.85;62.48;101276.03;5122486;29;20448;-71
2023/06/09 07:47:06;;;;;;;;;;;;;;;21.11;62.29;101274.78;5122697;29;20123;-71
2023/06/09 07:49:38;;;;;;;14.70;8.67;;;;;;;21.13;61.53;101273.75;5122165;29;20006;-71
2023/06/09 07:52:09;;;;;;;13.47;8.83;;;;;;;21.33;63.10;101271.06;5122034;29;20479;-71
2023/06/09 07:54:40;;;;;;;14.33;7.33;;;;;;;21.47;63.16;101266.75;5121298;29;20040;-71
2023/06/09 07:57:12;;;;;;;13.97;7.87;;;;;;;21.70;61.98;101272.72;5122077;29;20032;-71
2023/06/09 07:59:45;;;;;;;13.77;8.33;;;;;;;21.84;60.95;101270.19;5121889;29;20067;-71
2023/06/09 08:02:16;;;;;;;11.88;7.28;;;;;;;21.87;59.14;101266.53;5121620;29;20059;-71
2023/06/09 08:04:48;;;;;;;18.70;8.67;;;;;;;21.97;58.87;101264.25;5121997;29;20403;-71
2023/06/09 08:07:19;;;;;;;12.87;8.03;;;;;;;21.97;58.03;101269.56;5122474;29;20499;-71
2023/06/09 08:09:50;;;;;;;16.97;8.17;;;;;;;22.03;58.50;101267.44;5121401;29;20036;-71
2023/06/09 08:12:22;;;;;;;18.10;8.40;;;;;;;22.12;58.75;101266.09;5121775;29;20498;-71
2023/06/09 08:14:53;;;;;;;13.93;8.70;;;;;;;22.26;58.06;101265.34;5121377;29;20036;-71
2023/06/09 08:17:24;;;;;;;17.87;8.67;;;;;;;22.43;58.38;101268.91;5121716;29;20089;-71
2023/06/09 08:19:56;;;;;;;15.80;9.13;;;;;;;22.52;57.42;101266.63;5121595;29;20038;-71
2023/06/09 08:22:27;;;;;;;16.20;8.23;;;;;;;22.57;56.18;101263.69;5120975;29;20044;-71
2023/06/09 08:24:59;;;;;;;14.73;8.37;;;;;;;22.77;56.40;101265.25;5121547;29;20130;-71
2023/06/09 08:27:31;;;;;;;16.02;8.60;;;;;;;22.78;56.03;101245.66;5121617;29;20481;-71
2023/06/09 08:30:03;;;;;;;16.17;7.63;;;;;;;22.85;54.71;101251.53;5120988;29;20119;-72
2023/06/09 08:32:36;;;;;;;16.10;8.38;;;;;;;22.93;53.60;101251.94;5121654;29;20457;-71
2023/06/09 08:35:09;;;;;;;11.95;7.50;;;;;;;23.14;53.12;101249.88;5120562;29;20059;-71
2023/06/09 08:37:41;;;;;;;11.68;6.88;;;;;;;23.32;52.30;101255.06;5120941;29;20035;-71
2023/06/09 08:40:13;;;;;;;13.07;7.30;;;;;;;23.46;53.87;101249.78;5120735;29;20040;-71
2023/06/09 08:42:47;;;;;;;9.48;7.18;;;;;;;23.45;52.11;101245.38;5120045;29;20047;-71
2023/06/09 08:45:20;;;;;;;10.88;6.55;;;;;;;23.56;51.94;101256.25;5120618;29;20036;-71
2023/06/09 08:47:59;;;;;;;11.77;6.97;;;;;;;23.91;52.98;101263.06;5121586;29;20047;-72
2023/06/09 08:50:31;;;;;;;11.27;7.20;;;;;;;23.82;50.42;101253.81;5121207;29;20451;-71
2023/06/09 08:53:02;;;;;;;11.15;6.93;;;;;;;24.02;50.62;101256.13;5121022;29;20032;-71
2023/06/09 08:55:36;;;;;;;12.57;7.30;;;;;;;24.15;49.90;101250.91;5121117;29;20064;-71
2023/06/09 08:58:07;;;;;;;12.25;8.10;;;;;;;24.06;49.18;101254.13;5120864;29;20031;-71
2023/06/09 09:00:40;;;;;;;11.65;8.10;;;;;;;24.24;49.85;101256.59;5121110;29;20036;-71
2023/06/09 09:03:11;;;;;;;12.82;7.82;;;;;;;24.27;49.52;101249.25;5121433;29;20040;-71
2023/06/09 09:05:44;;;;;;;12.20;7.90;;;;;;;24.48;48.94;101241.72;5120452;29;20056;-71
2023/06/09 09:08:15;;;;;;;10.60;7.35;;;;;;;24.55;48.15;101236.84;5121545;29;20048;-71
2023/06/09 09:10:46;;;;;;;14.20;7.30;;;;;;;24.74;49.02;101240.03;5121039;29;20404;-71
2023/06/09 09:13:19;;;;;;;14.15;8.57;;;;;;;24.78;47.72;101239.84;5103977;29;20039;-72
2023/06/09 09:15:51;;;;;;;12.40;7.95;;;;;;;24.89;47.03;101238.19;5120654;29;20036;-72
2023/06/09 09:18:22;;;;;;;13.63;8.68;;;;;;;25.10;47.36;101235.91;5120478;29;20043;-72
2023/06/09 09:20:54;;;;;;;17.77;8.20;;;;;;;25.29;47.58;101230.22;5120725;29;20044;-71
2023/06/09 09:23:30;;;;;;;;;;;;;;;25.56;46.81;101239.97;5120857;29;20040;-71
2023/06/09 09:26:03;;;;;;;10.25;7.15;;;;;;;25.51;46.80;101227.91;5120482;29;19992;-70
2023/06/09 09:28:42;;;;;;;10.43;7.63;;;;;;;25.69;45.76;101242.63;5120626;29;20350;-71
2023/06/09 09:31:13;;;;;;;13.05;7.40;;;;;;;25.79;45.46;101234.81;5120244;29;20090;-71
2023/06/09 09:33:47;;;;;;;13.60;8.10;;;;;;;25.95;43.66;101237.28;5119838;29;20064;-72
2023/06/09 09:36:19;;;;;;;12.18;6.63;;;;;;;26.02;44.09;101235.94;5119926;29;20583;-72
2023/06/09 09:38:51;;;;;;;12.43;7.50;;;;;;;26.12;44.46;101228.97;5120528;29;20544;-71
2023/06/09 09:41:23;;;;;;;14.68;6.68;;;;;;;26.18;43.46;101220.50;5120417;29;20111;-71
2023/06/09 09:43:56;;;;;;;12.60;7.22;;;;;;;26.34;43.61;101222.06;5119582;29;20059;-71
2023/06/09 09:46:36;;;;;;;12.05;6.90;;;;;;;26.28;41.20;101227.88;5118661;29;20036;-70
2023/06/09 09:49:20;;;;;;;8.00;6.20;;;;;;;26.50;42.45;101221.78;5120027;29;20364;-71
2023/06/09 09:51:51;;;;;;;10.70;7.38;;;;;;;26.72;42.94;101213.91;5124502;29;20036;-71
2023/06/09 09:54:26;;;;;;;9.23;6.45;;;;;;;26.97;41.11;101216.56;5124621;29;20483;-71
2023/06/09 09:56:59;;;;;;;13.43;7.10;;;;;;;26.73;39.46;101207.63;5124306;29;20104;-71
2023/06/09 09:59:30;;;;;;;14.85;6.57;;;;;;;26.85;39.52;101208.50;5124454;29;20032;-71
2023/06/09 10:02:03;;;;;;;10.80;5.97;;;;;;;27.17;41.79;101212.41;5124864;29;20179;-72
2023/06/09 10:04:36;;;;;;;9.65;5.57;;;;;;;27.80;39.75;101211.06;5124394;29;20444;-71
2023/06/09 10:07:07;;;;;;;10.43;5.72;;;;;;;28.57;38.54;101214.81;5123844;29;20056;-71
2023/06/09 10:09:39;;;;;;;;;;;;;;;30.00;37.17;101212.56;5124638;29;20035;-71
2023/06/09 10:12:11;;;;;;;9.67;6.13;;;;;;;31.07;32.50;101198.44;5123542;29;20013;-71
2023/06/09 10:14:42;;;;;;;;;;;;;;;32.93;33.17;101205.69;5124496;29;20032;-71
2023/06/09 10:17:15;;;;;;;11.03;5.63;;;;;;;33.31;28.46;101204.44;5124212;29;19915;-71
2023/06/09 10:19:51;;;;;;;7.80;5.60;;;;;;;33.26;28.08;101206.78;5122486;29;20031;-72
2023/06/09 10:22:23;;;;;;;7.45;5.20;;;;;;;33.46;26.98;101210.16;5124008;29;20031;-73
2023/06/09 10:24:55;;;;;;;14.27;6.25;;;;;;;33.73;27.94;101216.38;5123853;29;20036;-72
2023/06/09 10:27:27;;;;;;;10.10;5.47;;;;;;;33.41;27.41;101204.38;5122508;29;20065;-72
2023/06/09 10:29:58;;;;;;;6.25;5.13;;;;;;;33.91;25.29;101202.81;5123803;29;20089;-72
2023/06/09 10:32:32;;;;;;;10.55;5.47;;;;;;;34.44;26.75;101204.34;5122335;29;20032;-72
2023/06/09 10:35:06;;;;;;;9.90;5.75;;;;;;;34.78;24.63;101200.69;5123329;29;20036;-72
2023/06/09 10:37:40;;;;;;;8.30;5.40;;;;;;;35.20;25.19;101198.78;5123480;29;20499;-72
2023/06/09 10:40:17;;;;;;;8.60;6.38;;;;;;;35.74;24.91;101204.47;5122922;29;20372;-72
2023/06/09 10:42:52;;;;;;;10.32;6.63;;;;;;;35.79;23.54;101203.94;5123113;29;20032;-73
2023/06/09 10:45:49;;;;;;;10.02;5.95;;;;;;;35.89;24.63;101198.28;5123436;29;20118;-72
2023/06/09 10:48:41;;;;;;;6.85;5.72;;;;;;;36.89;24.13;101189.38;5123812;29;20039;-73
2023/06/09 10:51:24;;;;;;;9.43;6.00;;;;;;;36.45;23.91;101181.88;5123414;29;20084;-72
2023/06/09 10:54:15;;;;;;;9.68;5.97;;;;;;;36.79;23.20;101181.50;5123369;29;20024;-73
2023/06/09 10:56:52;;;;;;;10.65;5.60;;;;;;;36.47;24.10;101179.84;5123665;29;20028;-72
2023/06/09 10:59:23;;;;;;;9.50;5.50;;;;;;;36.80;23.17;101185.03;5123094;29;20044;-73
2023/06/09 11:02:08;;;;;;;10.82;6.38;;;;;;;36.54;23.29;101180.81;5122195;29;20480;-72
2023/06/09 11:04:45;;;;;;;8.73;5.57;;;;;;;37.02;22.85;101181.44;5123852;29;20025;-72
2023/06/09 11:07:25;;;;;;;9.27;5.10;;;;;;;37.24;21.28;101178.88;5122883;29;20072;-72
2023/06/09 11:09:56;;;;;;;9.07;5.30;;;;;;;36.72;20.71;101174.22;5122881;29;20071;-74
2023/06/09 11:12:45;;;;;;;12.00;6.33;;;;;;;36.71;22.17;101172.53;5122778;29;20032;-72
2023/06/09 11:15:17;;;;;;;12.18;5.55;;;;;;;37.69;21.20;101173.47;5123446;29;20248;-72
2023/06/09 11:17:54;;;;;;;10.43;5.90;;;;;;;37.35;20.90;101178.41;5122692;29;20035;-72
2023/06/09 11:20:25;;;;;;;8.90;5.45;;;;;;;38.03;20.83;101177.44;5122939;29;20032;-73
2023/06/09 11:22:59;;;;;;;7.38;6.20;;;;;;;38.09;21.19;101172.06;5123553;29;20119;-72
2023/06/09 11:25:30;;;;;;;10.05;6.85;;;;;;;38.57;21.60;101163.34;5123418;29;20036;-73
2023/06/09 11:28:01;;;;;;;12.87;6.20;;;;;;;39.05;21.43;101156.44;5121456;29;20064;-73
2023/06/09 11:30:33;;;;;;;8.90;6.60;;;;;;;39.07;20.75;101160.66;5123067;29;20256;-73
2023/06/09 11:33:05;;;;;;;11.57;7.00;;;;;;;38.94;20.62;101155.09;5122582;29;20394;-72
2023/06/09 11:35:40;;;;;;;8.43;6.05;;;;;;;39.25;20.01;101148.41;5122893;29;20040;-72
2023/06/09 11:38:20;;;;;;;10.15;5.82;;;;;;;39.46;21.49;101151.03;5123387;29;20040;-72
2023/06/09 11:40:52;;;;;;;9.20;6.57;;;;;;;38.64;20.71;101149.81;5122876;29;20469;-72
2023/06/09 11:43:25;;;;;;;7.20;6.05;;;;;;;39.90;20.40;101147.06;5122571;29;20130;-72
2023/06/09 11:46:01;;;;;;;7.80;5.97;;;;;;;39.41;20.40;101152.69;5120877;29;20040;-72